createdAt,value
2022-09-03T00:00:46.784Z,16.40
2022-09-03T00:05:46.896Z,16.40
2022-09-03T00:10:52.447Z,16.40
2022-09-03T00:15:45.880Z,16.40
2022-09-03T00:20:44.523Z,16.30
2022-09-03T00:25:45.899Z,16.40
2022-09-03T00:30:41.408Z,16.40
2022-09-03T00:35:42.213Z,16.30
2022-09-03T00:41:02.070Z,16.40
2022-09-03T00:46:07.515Z,16.50
2022-09-03T00:51:25.580Z,16.30
2022-09-03T00:56:31.403Z,16.40
2022-09-03T01:01:36.308Z,16.40
2022-09-03T01:06:44.771Z,16.30
2022-09-03T01:11:59.731Z,16.50
2022-09-03T01:17:04.051Z,16.70
2022-09-03T01:22:26.010Z,16.90
2022-09-03T01:27:44.004Z,16.90
2022-09-03T01:32:50.132Z,16.90
2022-09-03T01:38:02.804Z,17.10
2022-09-03T01:43:24.260Z,17.00
2022-09-03T01:48:44.584Z,16.80
2022-09-03T01:54:21.076Z,16.80
2022-09-03T01:59:24.912Z,16.80
2022-09-03T02:04:23.586Z,16.70
2022-09-03T02:09:17.132Z,16.80
2022-09-03T02:14:10.868Z,16.90
2022-09-03T02:19:10.915Z,17.10
2022-09-03T02:24:09.147Z,17.00
2022-09-03T02:29:03.920Z,17.00
2022-09-03T02:33:59.314Z,17.00
2022-09-03T02:38:52.660Z,16.90
2022-09-03T02:43:56.116Z,16.90
2022-09-03T02:48:49.558Z,16.80
2022-09-03T02:53:43.422Z,16.80
2022-09-03T02:58:36.721Z,16.60
2022-09-03T03:03:31.716Z,16.60
2022-09-03T03:08:28.656Z,16.70
2022-09-03T03:13:22.367Z,16.50
2022-09-03T03:18:17.527Z,16.40
2022-09-03T03:23:12.501Z,16.40
2022-09-03T03:28:07.267Z,16.50
2022-09-03T03:33:01.295Z,16.30
2022-09-03T03:37:54.684Z,16.30
2022-09-03T03:42:50.221Z,16.30
2022-09-03T03:47:43.586Z,16.50
2022-09-03T03:52:36.918Z,16.40
2022-09-03T03:57:33.026Z,16.30
2022-09-03T04:02:27.807Z,16.30
2022-09-03T04:07:21.190Z,16.30
2022-09-03T04:12:15.247Z,16.40
2022-09-03T04:17:08.580Z,16.50
2022-09-03T04:22:03.687Z,16.40
2022-09-03T04:26:57.179Z,16.40
2022-09-03T04:32:04.393Z,16.40
2022-09-03T04:36:59.153Z,16.40
2022-09-03T04:41:53.871Z,16.50
2022-09-03T04:46:47.951Z,16.60
2022-09-03T04:51:41.283Z,16.50
2022-09-03T04:56:36.391Z,16.40
2022-09-03T05:01:34.027Z,16.40
2022-09-03T05:06:28.839Z,16.60
2022-09-03T05:11:22.989Z,16.60
2022-09-03T05:16:17.618Z,16.50
2022-09-03T05:21:15.570Z,16.40
2022-09-03T05:26:11.451Z,16.40
2022-09-03T05:31:08.245Z,16.50
2022-09-03T05:36:04.535Z,16.50
2022-09-03T05:41:02.059Z,16.40
2022-09-03T05:46:00.540Z,16.30
2022-09-03T05:51:02.078Z,16.40
2022-09-03T05:56:01.114Z,16.40
2022-09-03T06:00:55.061Z,16.50
2022-09-03T06:05:52.722Z,16.60
2022-09-03T06:10:46.049Z,16.70
2022-09-03T06:15:41.262Z,16.70
2022-09-03T06:20:37.125Z,16.90
2022-09-03T06:25:31.852Z,17.00
2022-09-03T06:30:26.738Z,17.10
2022-09-03T06:35:21.613Z,17.00
2022-09-03T06:40:20.577Z,16.90
2022-09-03T06:45:13.900Z,17.00
2022-09-03T06:50:08.339Z,17.00
2022-09-03T06:55:03.063Z,17.00
2022-09-03T06:59:56.390Z,17.00
2022-09-03T07:04:50.350Z,17.10
2022-09-03T07:09:48.110Z,17.20
2022-09-03T07:14:43.128Z,17.30
2022-09-03T07:19:36.420Z,17.30
2022-09-03T07:24:29.731Z,17.40
2022-09-03T07:29:23.755Z,17.60
2022-09-03T07:34:18.533Z,17.60
2022-09-03T07:39:13.839Z,17.70
2022-09-03T07:44:09.456Z,17.80
2022-09-03T07:49:03.417Z,17.80
2022-09-03T07:54:02.141Z,17.90
2022-09-03T07:58:56.455Z,18.00
2022-09-03T08:03:52.908Z,18.40
2022-09-03T08:08:46.275Z,18.80
2022-09-03T08:13:43.894Z,19.00
2022-09-03T08:18:39.166Z,19.00
2022-09-03T08:23:32.520Z,19.10
2022-09-03T08:28:25.811Z,19.20
2022-09-03T08:33:37.015Z,19.40
2022-09-03T08:38:30.457Z,19.50
2022-09-03T08:43:24.032Z,19.80
2022-09-03T08:48:25.836Z,19.80
2022-09-03T08:53:29.983Z,20.00
2022-09-03T08:58:27.838Z,20.10
2022-09-03T09:03:51.113Z,20.00
2022-09-03T09:09:02.418Z,20.20
2022-09-03T09:14:04.635Z,20.10
2022-09-03T09:19:17.778Z,20.30
2022-09-03T09:24:23.439Z,20.50
2022-09-03T09:29:18.175Z,20.70
2022-09-03T09:34:13.308Z,21.00
2022-09-03T09:39:10.993Z,21.00
2022-09-03T09:44:06.327Z,21.10
2022-09-03T09:49:00.324Z,21.30
2022-09-03T09:54:13.436Z,21.40
2022-09-03T09:59:09.976Z,21.60
2022-09-03T10:04:12.777Z,21.70
2022-09-03T10:09:13.433Z,21.40
2022-09-03T10:14:16.355Z,21.20
2022-09-03T10:19:18.075Z,20.80
2022-09-03T10:24:41.070Z,20.00
2022-09-03T10:29:34.606Z,19.50
2022-09-03T10:34:39.481Z,19.20
2022-09-03T10:39:59.871Z,19.20
2022-09-03T10:45:09.787Z,19.10
2022-09-03T10:50:16.140Z,19.10
2022-09-03T10:55:35.789Z,19.00
2022-09-03T11:00:32.102Z,19.20
2022-09-03T11:05:32.803Z,19.50
2022-09-03T11:10:32.736Z,19.60
2022-09-03T11:15:33.843Z,19.70
2022-09-03T11:20:29.046Z,19.70
2022-09-03T11:25:27.897Z,19.90
2022-09-03T11:30:35.997Z,19.90
2022-09-03T11:35:41.742Z,20.00
2022-09-03T11:40:37.985Z,20.10
2022-09-03T11:45:39.897Z,20.10
2022-09-03T11:55:53.585Z,20.30
2022-09-03T12:00:50.616Z,20.40
2022-09-03T12:05:57.981Z,20.40
2022-09-03T12:11:09.637Z,20.40
2022-09-03T12:16:40.569Z,20.30
2022-09-03T12:21:41.278Z,20.30
2022-09-03T12:26:42.861Z,20.30
2022-09-03T12:31:50.293Z,20.50
2022-09-03T12:36:47.068Z,20.70
2022-09-03T12:41:40.798Z,20.70
2022-09-03T12:46:36.898Z,20.70
2022-09-03T12:51:54.459Z,20.70
2022-09-03T12:56:57.428Z,20.70
2022-09-03T13:01:57.407Z,20.90
2022-09-03T13:06:58.076Z,21.00
2022-09-03T13:11:52.512Z,21.00
2022-09-03T13:17:19.445Z,21.00
2022-09-03T13:22:31.556Z,21.00
2022-09-03T13:27:39.616Z,20.90
2022-09-03T13:32:51.839Z,20.80
2022-09-03T13:37:54.049Z,20.80
2022-09-03T13:42:55.537Z,20.80
2022-09-03T13:48:17.288Z,21.00
2022-09-03T13:53:22.699Z,21.10
2022-09-03T13:58:29.222Z,21.10
2022-09-03T14:03:34.725Z,21.30
2022-09-03T14:08:54.269Z,21.10
2022-09-03T14:14:10.854Z,21.00
2022-09-03T14:19:13.902Z,21.00
2022-09-03T14:24:16.260Z,20.90
2022-09-03T14:29:18.441Z,20.90
2022-09-03T14:34:28.113Z,20.90
2022-09-03T14:39:48.297Z,20.80
2022-09-03T14:45:34.212Z,20.90
2022-09-03T14:50:58.933Z,20.80
2022-09-03T14:56:18.818Z,20.80
2022-09-03T15:01:18.509Z,20.80
2022-09-03T15:06:33.744Z,20.80
2022-09-03T15:11:33.346Z,20.90
2022-09-03T15:16:46.877Z,20.80
2022-09-03T15:22:04.177Z,20.80
2022-09-03T15:27:20.891Z,20.80
2022-09-03T15:32:32.809Z,20.80
2022-09-03T15:37:35.861Z,20.80
2022-09-03T15:42:31.892Z,20.70
2022-09-03T15:47:51.567Z,20.70
2022-09-03T15:53:03.797Z,20.70
2022-09-03T15:58:09.420Z,20.70
2022-09-03T16:03:11.440Z,20.70
2022-09-03T16:08:19.133Z,20.70
2022-09-03T16:13:34.700Z,20.70
2022-09-03T16:18:35.828Z,20.60
2022-09-03T16:23:41.697Z,20.50
2022-09-03T16:28:47.907Z,20.50
2022-09-03T16:33:57.576Z,20.60
2022-09-03T16:39:04.110Z,20.50
2022-09-03T16:44:13.129Z,20.40
2022-09-03T16:49:31.890Z,20.40
2022-09-03T16:55:00.264Z,20.50
2022-09-03T17:00:10.716Z,20.40
2022-09-03T17:05:49.496Z,20.40
2022-09-03T17:10:55.323Z,20.30
2022-09-03T17:15:54.192Z,20.20
2022-09-03T17:21:02.378Z,20.30
2022-09-03T17:26:12.770Z,20.20
2022-09-03T17:31:22.248Z,20.10
2022-09-03T17:36:19.676Z,20.10
2022-09-03T17:41:34.298Z,19.90
2022-09-03T17:46:43.939Z,19.80
2022-09-03T17:51:46.391Z,19.80
2022-09-03T17:56:55.284Z,19.80
2022-09-03T18:01:59.521Z,19.80
2022-09-03T18:07:01.548Z,19.60
2022-09-03T18:12:11.548Z,19.50
2022-09-03T18:17:10.749Z,19.40
2022-09-03T18:22:25.111Z,19.40
2022-09-03T18:27:46.778Z,18.90
2022-09-03T18:32:57.519Z,18.70
2022-09-03T18:38:08.489Z,18.80
2022-09-03T18:43:36.879Z,18.80
2022-09-03T18:48:58.165Z,18.50
2022-09-03T18:54:25.122Z,18.40
2022-09-03T19:00:12.659Z,18.20
2022-09-03T19:05:38.848Z,18.00
2022-09-03T19:11:06.884Z,18.10
2022-09-03T19:16:28.529Z,18.00
2022-09-03T19:21:54.509Z,17.90
2022-09-03T19:27:51.626Z,17.90
2022-09-03T19:33:13.973Z,17.80
2022-09-03T19:38:43.791Z,17.80
2022-09-03T19:44:11.490Z,17.70
2022-09-03T19:49:49.780Z,17.70
2022-09-03T19:55:02.898Z,17.80
2022-09-03T20:00:16.460Z,17.70
2022-09-03T20:05:36.844Z,17.60
2022-09-03T20:10:29.154Z,17.60
2022-09-03T20:15:33.518Z,17.70
2022-09-03T20:20:42.457Z,17.70
2022-09-03T20:26:10.916Z,17.50
2022-09-03T20:31:16.622Z,17.50
2022-09-03T20:36:28.495Z,17.50
2022-09-03T20:41:36.549Z,17.50
2022-09-03T20:46:52.262Z,17.40
2022-09-03T20:51:56.418Z,17.30
2022-09-03T20:57:33.873Z,17.30
2022-09-03T21:03:00.609Z,17.20
2022-09-03T21:08:15.926Z,17.10
2022-09-03T21:13:21.301Z,17.00
2022-09-03T21:18:28.136Z,17.10
2022-09-03T21:23:30.714Z,17.10
2022-09-03T21:28:32.609Z,17.10
2022-09-03T21:33:30.899Z,17.10
2022-09-03T21:38:29.084Z,17.00
2022-09-03T21:43:34.140Z,16.90
2022-09-03T21:48:36.429Z,16.70
2022-09-03T21:53:42.467Z,16.50
2022-09-03T21:59:02.418Z,16.60
2022-09-03T22:03:57.149Z,16.70
2022-09-03T22:09:00.106Z,16.60
2022-09-03T22:14:12.682Z,16.70
2022-09-03T22:19:11.526Z,16.70
2022-09-03T22:24:19.004Z,16.70
2022-09-03T22:29:24.330Z,16.60
2022-09-03T22:34:53.126Z,16.40
2022-09-03T22:39:48.875Z,16.30
2022-09-03T22:45:05.167Z,16.30
2022-09-03T22:50:09.650Z,16.40
2022-09-03T22:55:28.090Z,16.50
2022-09-03T23:00:21.950Z,16.50
2022-09-03T23:05:34.549Z,16.50
2022-09-03T23:10:37.285Z,16.40
2022-09-03T23:15:33.723Z,16.40
2022-09-03T23:20:30.246Z,16.40
2022-09-03T23:25:31.237Z,16.30
2022-09-03T23:30:24.509Z,16.00
2022-09-03T23:35:19.574Z,16.10
2022-09-03T23:40:35.216Z,16.00
2022-09-03T23:45:45.958Z,16.00
2022-09-03T23:50:53.098Z,16.00
2022-09-03T23:56:08.522Z,16.00
